createdAt,value
2023-04-10T00:00:58.009Z,101232.66
2023-04-10T00:04:01.417Z,101229.22
2023-04-10T00:07:04.033Z,101224.09
2023-04-10T00:10:06.854Z,101224.13
2023-04-10T00:13:09.444Z,101216.41
2023-04-10T00:16:12.075Z,101216.41
2023-04-10T00:19:14.546Z,101212.97
2023-04-10T00:22:17.112Z,101206.13
2023-04-10T00:25:19.586Z,101205.28
2023-04-10T00:28:22.167Z,101201.88
2023-04-10T00:31:24.810Z,101198.47
2023-04-10T00:34:27.436Z,101201.03
2023-04-10T00:37:29.846Z,101207.03
2023-04-10T00:40:32.601Z,101196.75
2023-04-10T00:43:35.027Z,101199.34
2023-04-10T00:46:38.393Z,101195.94
2023-04-10T00:49:41.515Z,101194.19
2023-04-10T00:52:49.117Z,101195.97
2023-04-10T00:55:51.702Z,101188.25
2023-04-10T00:58:54.379Z,101184.12
2023-04-10T01:01:56.907Z,101187.62
2023-04-10T01:04:59.675Z,101191.09
2023-04-10T01:08:37.763Z,101192.84
2023-04-10T01:12:00.701Z,101185.09
2023-04-10T01:15:07.858Z,101186.78
2023-04-10T01:18:13.540Z,101182.47
2023-04-10T01:21:16.333Z,101178.19
2023-04-10T01:24:24.940Z,101182.50
2023-04-10T01:28:06.032Z,101175.56
2023-04-10T01:31:11.774Z,101181.59
2023-04-10T01:34:20.029Z,101179.87
2023-04-10T01:37:25.416Z,101172.09
2023-04-10T01:40:29.393Z,101177.22
2023-04-10T01:43:33.816Z,101174.66
2023-04-10T01:46:37.378Z,101182.28
2023-04-10T01:49:44.545Z,101182.25
2023-04-10T01:52:47.576Z,101173.59
2023-04-10T01:55:52.321Z,101176.13
2023-04-10T01:58:56.059Z,101176.88
2023-04-10T02:01:59.497Z,101180.28
2023-04-10T02:05:02.397Z,101171.72
2023-04-10T02:08:09.055Z,101177.69
2023-04-10T02:11:15.479Z,101175.13
2023-04-10T02:14:20.605Z,101179.34
2023-04-10T02:17:26.688Z,101178.44
2023-04-10T02:20:31.135Z,101175.75
2023-04-10T02:23:33.634Z,101179.97
2023-04-10T02:26:49.036Z,101183.47
2023-04-10T02:29:51.874Z,101182.59
2023-04-10T02:32:55.525Z,101181.81
2023-04-10T02:35:57.907Z,101171.53
2023-04-10T02:39:00.692Z,101170.69
2023-04-10T02:42:03.315Z,101166.44
2023-04-10T02:45:06.460Z,101166.47
2023-04-10T02:48:11.042Z,101165.59
2023-04-10T02:51:14.401Z,101158.72
2023-04-10T02:54:17.378Z,101158.69
2023-04-10T02:57:21.370Z,101156.94
2023-04-10T03:00:24.133Z,101156.09
2023-04-10T03:03:29.258Z,101150.84
2023-04-10T03:06:31.876Z,101149.09
2023-04-10T03:09:34.880Z,101156.91
2023-04-10T03:12:37.829Z,101153.41
2023-04-10T03:15:40.539Z,101147.31
2023-04-10T03:18:42.962Z,101147.22
2023-04-10T03:21:46.382Z,101153.22
2023-04-10T03:24:48.742Z,101148.13
2023-04-10T03:27:51.524Z,101159.13
2023-04-10T03:30:54.013Z,101160.81
2023-04-10T03:33:57.099Z,101159.94
2023-04-10T03:36:59.774Z,101161.78
2023-04-10T03:40:22.984Z,101160.03
2023-04-10T03:43:25.570Z,101157.50
2023-04-10T03:46:28.546Z,101162.53
2023-04-10T03:49:31.420Z,101157.31
2023-04-10T03:52:36.897Z,101164.94
2023-04-10T03:55:41.270Z,101166.63
2023-04-10T03:58:44.940Z,101170.88
2023-04-10T04:01:47.914Z,101174.22
2023-04-10T04:04:50.996Z,101175.84
2023-04-10T04:07:54.236Z,101176.78
2023-04-10T04:10:57.134Z,101180.16
2023-04-10T04:13:59.897Z,101183.53
2023-04-10T04:17:03.339Z,101179.31
2023-04-10T04:20:06.389Z,101187.00
2023-04-10T04:23:10.457Z,101188.69
2023-04-10T04:26:13.292Z,101181.03
2023-04-10T04:29:16.461Z,101182.78
2023-04-10T04:32:19.308Z,101186.34
2023-04-10T04:35:26.714Z,101186.34
2023-04-10T04:38:30.339Z,101186.41
2023-04-10T04:41:33.328Z,101192.38
2023-04-10T04:44:36.653Z,101191.50
2023-04-10T04:47:39.512Z,101199.37
2023-04-10T04:50:42.363Z,101205.44
2023-04-10T04:53:46.859Z,101214.09
2023-04-10T04:56:49.592Z,101214.06
2023-04-10T04:59:53.263Z,101206.44
2023-04-10T05:02:56.148Z,101209.13
2023-04-10T05:06:03.181Z,101209.34
2023-04-10T05:09:08.163Z,101203.37
2023-04-10T05:12:14.569Z,101212.91
2023-04-10T05:15:17.865Z,101213.00
2023-04-10T05:18:23.754Z,101216.53
2023-04-10T05:21:29.280Z,101221.78
2023-04-10T05:24:35.163Z,101221.03
2023-04-10T05:27:37.851Z,101225.38
2023-04-10T05:30:40.892Z,101226.31
2023-04-10T05:33:44.554Z,101228.09
2023-04-10T05:36:47.214Z,101223.84
2023-04-10T05:39:51.204Z,101219.53
2023-04-10T05:42:54.182Z,101221.28
2023-04-10T05:45:56.910Z,101230.75
2023-04-10T05:49:00.564Z,101225.53
2023-04-10T05:52:05.170Z,101219.28
2023-04-10T05:55:08.375Z,101231.75
2023-04-10T05:58:11.378Z,101229.38
2023-04-10T06:01:14.774Z,101224.47
2023-04-10T06:04:18.089Z,101231.75
2023-04-10T06:07:21.407Z,101222.53
2023-04-10T06:10:24.113Z,101217.91
2023-04-10T06:13:27.579Z,101225.38
2023-04-10T06:16:30.589Z,101225.38
2023-04-10T06:19:33.830Z,101226.84
2023-04-10T06:22:36.767Z,101230.09
2023-04-10T06:25:39.153Z,101229.13
2023-04-10T06:28:42.303Z,101225.22
2023-04-10T06:31:45.713Z,101229.47
2023-04-10T06:34:49.062Z,101226.25
2023-04-10T06:37:51.620Z,101224.06
2023-04-10T06:40:54.950Z,101223.56
2023-04-10T06:43:57.613Z,101226.78
2023-04-10T06:47:00.516Z,101219.87
2023-04-10T06:50:02.907Z,101220.78
2023-04-10T06:53:05.773Z,101211.97
2023-04-10T06:56:08.304Z,101219.22
2023-04-10T06:59:11.048Z,101205.91
2023-04-10T07:02:13.457Z,101201.19
2023-04-10T07:05:16.535Z,101193.94
2023-04-10T07:08:18.912Z,101198.63
2023-04-10T07:11:21.623Z,101201.53
2023-04-10T07:14:24.005Z,101207.13
2023-04-10T07:17:26.756Z,101200.56
2023-04-10T07:20:29.781Z,101202.19
2023-04-10T07:23:32.707Z,101203.88
2023-04-10T07:26:35.031Z,101189.53
2023-04-10T07:29:37.626Z,101183.66
2023-04-10T07:32:42.147Z,101190.13
2023-04-10T07:35:45.003Z,101183.91
2023-04-10T07:38:47.430Z,101180.81
2023-04-10T07:41:50.598Z,101178.38
2023-04-10T07:44:52.930Z,101173.22
2023-04-10T07:47:56.014Z,101167.31
2023-04-10T07:50:58.957Z,101168.19
2023-04-10T07:54:03.022Z,101174.50
2023-04-10T07:57:05.393Z,101172.56
2023-04-10T08:00:08.289Z,101155.53
2023-04-10T08:03:15.870Z,101155.94
2023-04-10T08:06:18.784Z,101151.09
2023-04-10T08:09:21.253Z,101150.09
2023-04-10T08:12:23.918Z,101146.72
2023-04-10T08:15:26.368Z,101152.59
2023-04-10T08:18:28.941Z,101151.50
2023-04-10T08:21:34.313Z,101146.28
2023-04-10T08:24:37.312Z,101149.75
2023-04-10T08:27:39.618Z,101147.53
2023-04-10T08:30:42.640Z,101138.75
2023-04-10T08:33:45.010Z,101135.81
2023-04-10T08:36:47.575Z,101140.03
2023-04-10T08:39:49.890Z,101134.38
2023-04-10T08:42:52.488Z,101130.50
2023-04-10T08:45:56.359Z,101127.09
2023-04-10T08:49:01.835Z,101128.25
2023-04-10T08:52:07.330Z,101129.66
2023-04-10T08:55:12.813Z,101127.94
2023-04-10T08:58:15.872Z,101118.37
2023-04-10T09:01:19.992Z,101120.75
2023-04-10T09:04:22.954Z,101118.37
2023-04-10T09:07:26.510Z,101115.37
2023-04-10T09:10:29.053Z,101110.03
2023-04-10T09:13:38.052Z,101109.34
2023-04-10T09:16:40.410Z,101106.84
2023-04-10T09:19:43.978Z,101107.38
2023-04-10T09:22:46.533Z,101106.94
2023-04-10T09:25:51.144Z,101098.53
2023-04-10T09:28:57.016Z,101104.97
2023-04-10T09:31:59.624Z,101105.47
2023-04-10T09:35:02.244Z,101104.63
2023-04-10T09:38:15.885Z,101103.00
2023-04-10T09:41:18.211Z,101094.63
2023-04-10T09:44:31.748Z,101086.72
2023-04-10T09:47:34.377Z,101085.66
2023-04-10T09:50:39.891Z,101091.88
2023-04-10T09:53:48.622Z,101092.94
2023-04-10T09:56:51.719Z,101073.34
2023-04-10T09:59:58.011Z,101075.09
2023-04-10T10:03:04.970Z,101081.25
2023-04-10T10:06:07.735Z,101077.03
2023-04-10T10:09:10.313Z,101072.22
2023-04-10T10:12:15.670Z,101071.53
2023-04-10T10:15:27.094Z,101074.72
2023-04-10T10:18:32.528Z,101063.38
2023-04-10T10:21:35.864Z,101061.63
2023-04-10T10:24:40.118Z,101060.47
2023-04-10T10:27:42.663Z,101062.28
2023-04-10T10:30:45.352Z,101059.19
2023-04-10T10:33:48.305Z,101052.41
2023-04-10T10:36:51.075Z,101045.31
2023-04-10T10:39:58.917Z,101049.56
2023-04-10T10:43:16.615Z,101052.41
2023-04-10T10:46:21.872Z,101051.00
2023-04-10T10:49:44.380Z,101045.06
2023-04-10T10:52:46.960Z,101048.09
2023-04-10T10:55:49.548Z,101046.72
2023-04-10T10:59:02.101Z,101043.47
2023-04-10T11:02:13.097Z,101043.91
2023-04-10T11:05:34.232Z,101037.66
2023-04-10T11:08:43.367Z,101047.47
2023-04-10T11:12:01.074Z,101053.09
2023-04-10T11:15:05.242Z,101064.22
2023-04-10T11:18:07.597Z,101048.19
2023-04-10T11:21:13.619Z,101048.44
2023-04-10T11:24:15.978Z,101049.59
2023-04-10T11:27:37.742Z,101045.16
2023-04-10T11:30:41.181Z,101038.31
2023-04-10T11:33:43.992Z,101032.88
2023-04-10T11:36:46.581Z,101037.34
2023-04-10T11:39:49.397Z,101040.63
2023-04-10T11:42:51.729Z,101043.63
2023-04-10T11:46:01.593Z,101044.22
2023-04-10T11:49:05.024Z,101048.88
2023-04-10T11:52:07.613Z,101050.13
2023-04-10T11:55:09.877Z,101049.94
2023-04-10T11:58:28.811Z,101036.75
2023-04-10T12:01:31.051Z,101042.00
2023-04-10T12:04:33.880Z,101035.81
2023-04-10T12:07:36.443Z,101029.03
2023-04-10T12:10:45.598Z,101028.19
2023-04-10T12:13:55.981Z,101027.03
2023-04-10T12:16:59.263Z,101024.44
2023-04-10T12:20:02.578Z,101029.94
2023-04-10T12:23:05.364Z,101020.16
2023-04-10T12:26:17.759Z,101010.34
2023-04-10T12:29:27.688Z,101004.75
2023-04-10T12:32:30.383Z,100998.84
2023-04-10T12:35:45.680Z,100988.66
2023-04-10T12:38:47.934Z,100981.12
2023-04-10T12:41:50.663Z,100972.69
2023-04-10T12:44:56.228Z,100964.16
2023-04-10T12:47:58.781Z,100963.31
2023-04-10T12:51:01.382Z,100957.47
2023-04-10T12:54:04.091Z,100950.56
2023-04-10T12:57:07.419Z,100952.19
2023-04-10T13:00:11.282Z,100947.62
2023-04-10T13:03:14.689Z,100936.62
2023-04-10T13:06:17.541Z,100935.00
2023-04-10T13:09:20.000Z,100935.25
2023-04-10T13:12:23.754Z,100923.06
2023-04-10T13:15:26.059Z,100924.22
2023-04-10T13:18:28.663Z,100913.00
2023-04-10T13:21:31.150Z,100910.44
2023-04-10T13:24:34.043Z,100909.19
2023-04-10T13:27:36.337Z,100900.94
2023-04-10T13:30:40.339Z,100901.31
2023-04-10T13:33:47.968Z,100897.97
2023-04-10T13:36:51.048Z,100894.50
2023-04-10T13:39:53.634Z,100887.63
2023-04-10T13:42:56.329Z,100886.28
2023-04-10T13:45:58.601Z,100875.28
2023-04-10T13:49:01.292Z,100871.63
2023-04-10T13:52:04.121Z,100865.44
2023-04-10T13:55:07.056Z,100858.13
2023-04-10T13:58:13.489Z,100851.34
2023-04-10T14:01:16.189Z,100849.25
2023-04-10T14:04:19.127Z,100843.84
2023-04-10T14:07:21.670Z,100835.03
2023-04-10T14:10:24.373Z,100828.25
2023-04-10T14:13:27.220Z,100822.22
2023-04-10T14:16:29.824Z,100821.69
2023-04-10T14:19:34.012Z,100818.22
2023-04-10T14:22:37.490Z,100810.09
2023-04-10T14:25:39.881Z,100803.00
2023-04-10T14:28:42.658Z,100800.41
2023-04-10T14:31:54.830Z,100787.84
2023-04-10T14:35:03.126Z,100795.03
2023-04-10T14:38:05.653Z,100777.59
2023-04-10T14:41:08.654Z,100778.22
2023-04-10T14:44:11.126Z,100782.84
2023-04-10T14:47:14.228Z,100771.25
2023-04-10T14:50:17.136Z,100769.63
2023-04-10T14:53:21.645Z,100766.72
2023-04-10T14:56:24.315Z,100761.06
2023-04-10T14:59:27.461Z,100756.88
2023-04-10T15:02:30.667Z,100756.75
2023-04-10T15:05:34.191Z,100747.34
2023-04-10T15:08:36.866Z,100748.72
2023-04-10T15:11:39.527Z,100733.56
2023-04-10T15:14:42.010Z,100738.50
2023-04-10T15:17:44.628Z,100736.19
2023-04-10T15:20:46.991Z,100730.94
2023-04-10T15:23:50.881Z,100725.00
2023-04-10T15:26:53.734Z,100725.37
2023-04-10T15:29:56.423Z,100714.97
2023-04-10T15:32:58.918Z,100714.87
2023-04-10T15:36:01.588Z,100713.16
2023-04-10T15:39:03.997Z,100716.44
2023-04-10T15:42:08.282Z,100710.16
2023-04-10T15:45:10.925Z,100714.53
2023-04-10T15:48:13.571Z,100715.37
2023-04-10T15:51:16.201Z,100711.81
2023-04-10T15:54:19.081Z,100711.69
2023-04-10T15:57:21.492Z,100709.28
2023-04-10T16:00:24.259Z,100702.84
2023-04-10T16:03:29.937Z,100695.94
2023-04-10T16:06:33.373Z,100688.34
2023-04-10T16:09:36.156Z,100694.50
2023-04-10T16:12:38.829Z,100681.97
2023-04-10T16:15:41.539Z,100682.75
2023-04-10T16:18:47.246Z,100689.62
2023-04-10T16:21:51.115Z,100690.09
2023-04-10T16:24:57.101Z,100680.41
2023-04-10T16:27:59.771Z,100681.72
2023-04-10T16:31:02.264Z,100674.41
2023-04-10T16:34:04.856Z,100683.88
2023-04-10T16:37:07.665Z,100679.59
2023-04-10T16:40:12.604Z,100685.41
2023-04-10T16:43:15.075Z,100673.81
2023-04-10T16:46:17.894Z,100678.06
2023-04-10T16:49:22.401Z,100670.72
2023-04-10T16:52:26.968Z,100668.91
2023-04-10T16:55:29.300Z,100673.56
2023-04-10T16:58:32.803Z,100678.41
2023-04-10T17:01:39.704Z,100676.78
2023-04-10T17:04:42.380Z,100670.53
2023-04-10T17:07:45.231Z,100668.41
2023-04-10T17:10:48.089Z,100672.22
2023-04-10T17:13:50.484Z,100665.03
2023-04-10T17:16:53.156Z,100674.66
2023-04-10T17:19:55.763Z,100670.53
2023-04-10T17:22:58.543Z,100676.19
2023-04-10T17:26:04.741Z,100672.25
2023-04-10T17:29:07.569Z,100671.59
2023-04-10T17:32:10.388Z,100676.50
2023-04-10T17:35:13.150Z,100674.69
2023-04-10T17:38:15.558Z,100679.31
2023-04-10T17:41:18.393Z,100679.56
2023-04-10T17:44:20.718Z,100686.62
2023-04-10T17:47:23.470Z,100686.44
2023-04-10T17:50:26.213Z,100688.50
2023-04-10T17:53:29.106Z,100688.25
2023-04-10T17:56:31.705Z,100697.47
2023-04-10T17:59:34.494Z,100699.28
2023-04-10T18:02:39.538Z,100698.06
2023-04-10T18:05:42.259Z,100699.03
2023-04-10T18:08:44.632Z,100702.00
2023-04-10T18:11:48.050Z,100702.31
2023-04-10T18:14:50.636Z,100701.37
2023-04-10T18:17:53.701Z,100705.78
2023-04-10T18:20:56.079Z,100710.75
2023-04-10T18:23:58.874Z,100710.44
2023-04-10T18:27:01.157Z,100706.50
2023-04-10T18:30:03.934Z,100715.53
2023-04-10T18:33:10.686Z,100711.25
2023-04-10T18:36:18.371Z,100701.16
2023-04-10T18:39:20.733Z,100704.81
2023-04-10T18:42:24.172Z,100709.69
2023-04-10T18:45:26.584Z,100714.50
2023-04-10T18:48:29.568Z,100720.72
2023-04-10T18:51:33.400Z,100728.09
2023-04-10T18:54:38.101Z,100724.72
2023-04-10T18:57:40.751Z,100724.94
2023-04-10T19:00:43.636Z,100734.94
2023-04-10T19:03:47.826Z,100738.97
2023-04-10T19:06:51.996Z,100737.84
2023-04-10T19:09:54.749Z,100736.81
2023-04-10T19:12:57.584Z,100736.72
2023-04-10T19:16:03.160Z,100731.69
2023-04-10T19:19:06.053Z,100724.41
2023-04-10T19:22:08.468Z,100716.38
2023-04-10T19:25:11.579Z,100730.00
2023-04-10T19:28:14.080Z,100732.97
2023-04-10T19:31:16.795Z,100729.06
2023-04-10T19:34:19.422Z,100731.03
2023-04-10T19:37:22.048Z,100729.13
2023-04-10T19:40:24.839Z,100730.28
2023-04-10T19:43:28.624Z,100716.53
2023-04-10T19:46:31.133Z,100727.16
2023-04-10T19:49:34.343Z,100719.44
2023-04-10T19:52:38.040Z,100721.31
2023-04-10T19:55:40.854Z,100716.44
2023-04-10T19:58:45.555Z,100708.84
2023-04-10T20:01:49.749Z,100710.12
2023-04-10T20:04:52.819Z,100710.28
2023-04-10T20:07:55.463Z,100713.97
2023-04-10T20:10:58.465Z,100706.31
2023-04-10T20:14:01.004Z,100706.34
2023-04-10T20:17:03.572Z,100710.56
2023-04-10T20:20:06.145Z,100703.72
2023-04-10T20:23:09.597Z,100702.91
2023-04-10T20:26:12.407Z,100702.94
2023-04-10T20:29:15.398Z,100703.16
2023-04-10T20:32:18.128Z,100703.41
2023-04-10T20:35:20.804Z,100706.28
2023-04-10T20:38:23.317Z,100700.50
2023-04-10T20:41:26.439Z,100688.81
2023-04-10T20:44:28.876Z,100687.31
2023-04-10T20:47:31.605Z,100685.94
2023-04-10T20:50:34.362Z,100688.94
2023-04-10T20:53:36.908Z,100684.00
2023-04-10T20:56:43.220Z,100692.06
2023-04-10T20:59:46.784Z,100684.44
2023-04-10T21:02:49.327Z,100696.75
2023-04-10T21:05:53.670Z,100691.53
2023-04-10T21:08:56.413Z,100693.91
2023-04-10T21:11:59.097Z,100695.16
2023-04-10T21:15:01.409Z,100687.63
2023-04-10T21:18:04.644Z,100687.06
2023-04-10T21:21:08.040Z,100684.66
2023-04-10T21:24:11.383Z,100686.62
2023-04-10T21:27:13.687Z,100679.88
2023-04-10T21:30:16.606Z,100677.44
2023-04-10T21:33:18.971Z,100685.38
2023-04-10T21:36:21.608Z,100680.38
2023-04-10T21:39:23.932Z,100680.56
2023-04-10T21:42:26.618Z,100684.13
2023-04-10T21:45:29.234Z,100676.31
2023-04-10T21:48:31.949Z,100670.41
2023-04-10T21:51:36.083Z,100671.44
2023-04-10T21:54:38.704Z,100671.47
2023-04-10T21:57:41.109Z,100670.56
2023-04-10T22:00:47.170Z,100668.97
2023-04-10T22:03:53.979Z,100667.37
2023-04-10T22:06:56.833Z,100656.28
2023-04-10T22:09:59.536Z,100655.56
2023-04-10T22:13:02.030Z,100656.53
2023-04-10T22:16:06.215Z,100659.22
2023-04-10T22:19:08.672Z,100656.66
2023-04-10T22:22:11.314Z,100655.91
2023-04-10T22:25:14.496Z,100659.41
2023-04-10T22:28:17.201Z,100655.09
2023-04-10T22:31:20.205Z,100662.00
2023-04-10T22:34:23.196Z,100649.22
2023-04-10T22:37:25.957Z,100644.94
2023-04-10T22:40:29.304Z,100648.47
2023-04-10T22:43:33.617Z,100640.72
2023-04-10T22:46:36.773Z,100646.81
2023-04-10T22:49:39.278Z,100643.22
2023-04-10T22:52:41.894Z,100648.56
2023-04-10T22:55:44.281Z,100645.28
2023-04-10T22:58:46.802Z,100650.34
2023-04-10T23:01:49.343Z,100653.87
2023-04-10T23:04:52.047Z,100647.09
2023-04-10T23:07:54.992Z,100640.31
2023-04-10T23:10:58.081Z,100636.13
2023-04-10T23:14:00.438Z,100634.38
2023-04-10T23:17:03.085Z,100636.97
2023-04-10T23:20:05.782Z,100637.00
2023-04-10T23:23:08.555Z,100627.59
2023-04-10T23:26:11.604Z,100632.75
2023-04-10T23:29:14.232Z,100632.00
2023-04-10T23:32:16.615Z,100621.66
2023-04-10T23:35:19.339Z,100617.44
2023-04-10T23:38:22.222Z,100616.59
2023-04-10T23:41:25.640Z,100619.09
2023-04-10T23:44:28.082Z,100620.03
2023-04-10T23:47:30.777Z,100613.22
2023-04-10T23:50:33.316Z,100612.47
2023-04-10T23:53:35.960Z,100610.84
2023-04-10T23:56:38.287Z,100613.47
2023-04-10T23:59:41.124Z,100610.81
